Time;durP1;ratioP1;P1;durP2;ratioP2;P2;SDS_P1;SDS_P2;PMS_P1;PMS_P2;Temp;Humidity;BMP_temperature;BMP_pressure;BME280_temperature;BME280_humidity;BME280_pressure;Samples;Min_cycle;Max_cycle;Signal;HPM_P1;HPM_P2
2022/12/24 00:00:13;;;;;;;;;;;;;;;26.50;25.34;100529.31;5075826;28;996;-11
2022/12/24 00:02:39;;;;;;;;;;;;;;;25.43;26.61;100522.69;5076330;28;1116;-11
2022/12/24 00:05:04;;;;;;;;;;;;;;;26.67;25.20;100527.28;5075772;28;1055;-12
2022/12/24 00:07:29;;;;;;;;;;;;;;;26.59;25.11;100532.78;5076271;28;1111;-12
2022/12/24 00:09:55;;;;;;;;;;;;;;;26.28;25.78;100539.94;5057533;28;1212;-12
2022/12/24 00:12:20;;;;;;;;;;;;;;;26.34;25.73;100533.84;5075180;28;1040;-12
2022/12/24 00:14:45;;;;;;;;;;;;;;;25.87;26.55;100533.03;5074527;28;2531;-12
2022/12/24 00:17:11;;;;;;;;;;;;;;;26.48;25.26;100531.34;5075966;28;1245;-12
2022/12/24 00:19:36;;;;;;;;;;;;;;;26.23;25.37;100528.84;5075142;28;1905;-12
2022/12/24 00:22:01;;;;;;;;;;;;;;;26.22;25.84;100536.13;5072886;28;1485;-12
2022/12/24 00:24:26;;;;;;;;;;;;;;;26.85;25.12;100535.00;5075491;28;1031;-12
2022/12/24 00:26:52;;;;;;;;;;;;;;;27.00;24.83;100539.56;5076141;28;1064;-12
2022/12/24 00:29:17;;;;;;;;;;;;;;;26.58;25.08;100544.56;5075948;28;1167;-12
2022/12/24 00:31:42;;;;;;;;;;;;;;;26.78;25.21;100548.41;5075739;28;1363;-12
2022/12/24 00:34:08;;;;;;;;;;;;;;;26.97;24.97;100542.63;5075470;28;937;-12
2022/12/24 00:36:33;;;;;;;;;;;;;;;26.65;24.95;100548.22;5075323;28;1086;-12
2022/12/24 00:38:58;;;;;;;;;;;;;;;27.49;24.09;100542.69;5075565;28;1902;-11
2022/12/24 00:41:23;;;;;;;;;;;;;;;27.18;24.21;100536.50;5075505;28;1066;-12
2022/12/24 00:43:52;;;;;;;;;;;;;;;26.60;24.99;100532.59;5075534;28;2476;-11
2022/12/24 00:46:18;;;;;;;;;;;;;;;27.06;24.66;100536.13;5074973;28;1163;-12
2022/12/24 00:48:43;;;;;;;;;;;;;;;27.20;24.17;100526.34;5080965;28;1202;-12
2022/12/24 00:51:08;;;;;;;;;;;;;;;26.53;25.24;100523.53;5076624;28;1054;-12
2022/12/24 00:53:33;;;;;;;;;;;;;;;26.53;25.29;100524.41;5074837;28;1059;-12
2022/12/24 00:55:59;;;;;;;;;;;;;;;27.24;24.28;100524.94;5075840;28;1024;-12
2022/12/24 00:58:24;;;;;;;;;;;;;;;26.14;25.80;100523.53;5074769;28;1906;-12
2022/12/24 01:00:49;;;;;;;;;;;;;;;26.92;24.64;100516.22;5075332;28;1099;-12
2022/12/24 01:03:15;;;;;;;;;;;;;;;26.53;25.22;100513.59;5057695;28;1123;-11
2022/12/24 01:05:40;;;;;;;;;;;;;;;27.79;23.88;100510.19;5075446;28;1107;-12
2022/12/24 01:08:05;;;;;;;;;;;;;;;26.83;24.89;100506.53;5074987;28;984;-12
2022/12/24 01:10:30;;;;;;;;;;;;;;;26.58;25.38;100509.50;5075571;28;1183;-12
2022/12/24 01:12:56;;;;;;;;;;;;;;;27.47;23.98;100512.31;5075457;28;1107;-12
2022/12/24 01:15:21;;;;;;;;;;;;;;;26.98;24.57;100506.50;5075339;28;2517;-12
2022/12/24 01:17:46;;;;;;;;;;;;;;;26.75;24.89;100499.38;5075345;28;1898;-11
2022/12/24 01:20:13;;;;;;;;;;;;;;;26.83;24.68;100510.06;5075216;28;1079;-12
2022/12/24 01:22:38;;;;;;;;;;;;;;;26.86;24.94;100507.00;5065494;28;1135;-12
2022/12/24 01:25:03;;;;;;;;;;;;;;;26.38;25.61;100497.41;5076804;28;1100;-12
2022/12/24 01:27:29;;;;;;;;;;;;;;;26.63;25.09;100507.09;5079329;28;1092;-12
2022/12/24 01:29:55;;;;;;;;;;;;;;;27.75;23.92;100511.59;5078936;28;1075;-12
2022/12/24 01:32:20;;;;;;;;;;;;;;;28.02;23.49;100506.44;5078832;28;1044;-11
2022/12/24 01:34:45;;;;;;;;;;;;;;;28.04;23.29;100504.38;5078839;28;1162;-12
2022/12/24 01:37:10;;;;;;;;;;;;;;;27.25;24.40;100501.47;5078560;28;1015;-12
2022/12/24 01:39:36;;;;;;;;;;;;;;;27.18;24.43;100497.84;5078714;28;1948;-12
2022/12/24 01:44:47;;;;;;;;;;;;;;;26.87;25.02;100499.75;5070478;28;2404;-12
2022/12/24 01:47:15;;;;;;;;;;;;;;;27.38;23.93;100500.78;5060396;28;1114;-12
2022/12/24 01:49:41;;;;;;;;;;;;;;;27.61;23.89;100503.31;5065914;28;1263;-12
2022/12/24 01:52:08;;;;;;;;;;;;;;;27.75;23.67;100501.63;5060162;28;1039;-11
2022/12/24 01:54:34;;;;;;;;;;;;;;;27.80;23.78;100509.13;5078476;28;1028;-12
2022/12/24 01:57:01;;;;;;;;;;;;;;;28.05;23.50;100497.91;5078498;28;1135;-12
2022/12/24 01:59:27;;;;;;;;;;;;;;;27.10;24.74;100499.66;5060455;28;1882;-12
2022/12/24 02:01:52;;;;;;;;;;;;;;;27.91;23.33;100504.25;5060544;28;1091;-12
2022/12/24 02:04:29;;;;;;;;;;;;;;;26.99;24.20;100492.81;5060577;28;1151;-12
2022/12/24 02:06:55;;;;;;;;;;;;;;;27.09;24.33;100497.97;5077960;28;1505;-12
2022/12/24 02:09:20;;;;;;;;;;;;;;;27.47;24.16;100494.25;5078450;28;1078;-12
2022/12/24 02:11:45;;;;;;;;;;;;;;;27.34;24.23;100496.81;5077821;28;885;-12
2022/12/24 02:14:10;;;;;;;;;;;;;;;27.25;24.55;100496.91;5077673;28;2683;-12
2022/12/24 02:16:48;;;;;;;;;;;;;;;26.50;25.55;100487.00;5077912;28;1199;-12
2022/12/24 02:19:22;;;;;;;;;;;;;;;27.95;23.49;100490.16;5060498;28;1914;-12
2022/12/24 02:21:49;;;;;;;;;;;;;;;28.15;23.23;100486.75;5060144;28;993;-12
2022/12/24 02:24:20;;;;;;;;;;;;;;;28.22;23.10;100489.50;5078058;28;894;-12
2022/12/24 02:26:54;;;;;;;;;;;;;;;27.46;24.08;100497.16;5078004;28;1087;-12
2022/12/24 02:29:20;;;;;;;;;;;;;;;27.17;24.29;100499.72;5077909;28;1132;-12
2022/12/24 02:31:52;;;;;;;;;;;;;;;26.96;24.57;100493.22;5077847;28;1158;-11
2022/12/24 02:34:18;;;;;;;;;;;;;;;26.68;24.79;100488.47;5058551;28;1075;-12
2022/12/24 02:36:45;;;;;;;;;;;;;;;27.84;23.49;100496.09;5078380;28;1044;-12
2022/12/24 02:39:11;;;;;;;;;;;;;;;27.02;24.52;100488.97;5077495;28;1897;-12
2022/12/24 02:44:23;;;;;;;;;;;;;;;26.71;25.25;100487.28;5062335;28;2333;-12
2022/12/24 02:46:49;;;;;;;;;;;;;;;27.06;24.73;100487.53;5059409;28;1119;-12
2022/12/24 02:49:14;;;;;;;;;;;;;;;26.91;25.11;100479.44;5059259;28;1036;-12
2022/12/24 02:51:39;;;;;;;;;;;;;;;27.63;23.78;100505.81;5077119;28;1206;-12
2022/12/24 02:54:04;;;;;;;;;;;;;;;27.86;23.47;100496.72;5077487;28;1054;-12
2022/12/24 02:56:48;;;;;;;;;;;;;;;28.16;23.23;100488.41;5060059;28;1060;-12
2022/12/24 02:59:19;;;;;;;;;;;;;;;28.14;23.34;100486.97;5073532;28;1901;-12
2022/12/24 03:01:53;;;;;;;;;;;;;;;27.05;24.31;100499.38;5059450;28;1063;-12
2022/12/24 03:04:18;;;;;;;;;;;;;;;27.08;24.66;100490.91;5064266;28;1099;-11
2022/12/24 03:06:44;;;;;;;;;;;;;;;27.50;24.21;100499.25;5077833;28;1135;-11
2022/12/24 03:09:25;;;;;;;;;;;;;;;26.85;24.73;100499.94;5077107;28;1071;-12
2022/12/24 03:11:54;;;;;;;;;;;;;;;26.90;24.72;100500.22;5059097;28;1025;-12
2022/12/24 03:14:19;;;;;;;;;;;;;;;27.12;24.82;100508.41;5076495;28;2548;-12
2022/12/24 03:16:44;;;;;;;;;;;;;;;27.75;23.92;100507.03;5059350;28;1171;-11
2022/12/24 03:19:09;;;;;;;;;;;;;;;27.50;23.93;100503.81;5077122;28;1973;-12
2022/12/24 03:21:35;;;;;;;;;;;;;;;27.86;23.34;100492.13;5076705;28;972;-11
2022/12/24 03:24:02;;;;;;;;;;;;;;;27.47;23.62;100496.09;5058770;28;1510;-11
2022/12/24 03:26:27;;;;;;;;;;;;;;;27.04;24.13;100486.91;5058939;28;1008;-11
2022/12/24 03:28:53;;;;;;;;;;;;;;;27.26;24.63;100485.06;5058859;28;1079;-12
2022/12/24 03:31:18;;;;;;;;;;;;;;;27.72;24.05;100483.09;5076954;28;1143;-12
2022/12/24 03:33:44;;;;;;;;;;;;;;;27.64;23.42;100491.31;5076535;28;1003;-11
2022/12/24 03:36:09;;;;;;;;;;;;;;;26.85;24.51;100491.84;5076004;28;1142;-12
2022/12/24 03:38:34;;;;;;;;;;;;;;;26.67;25.06;100489.53;5076902;28;1963;-12
2022/12/24 03:41:00;;;;;;;;;;;;;;;26.73;24.81;100499.56;5076573;28;1100;-12
2022/12/24 03:43:25;;;;;;;;;;;;;;;26.89;24.59;100497.69;5075995;28;2335;-12
2022/12/24 03:45:50;;;;;;;;;;;;;;;27.23;24.54;100501.66;5076132;28;1070;-12
2022/12/24 03:48:16;;;;;;;;;;;;;;;27.94;23.32;100493.88;5076310;28;918;-12
2022/12/24 03:50:41;;;;;;;;;;;;;;;27.90;23.42;100503.41;5075956;28;1032;-12
2022/12/24 03:53:06;;;;;;;;;;;;;;;27.57;23.73;100501.19;5076134;28;1028;-11
2022/12/24 03:55:32;;;;;;;;;;;;;;;27.91;23.42;100496.13;5076746;28;1047;-12
2022/12/24 03:57:57;;;;;;;;;;;;;;;27.13;24.12;100499.28;5075719;28;1969;-12
2022/12/24 04:00:22;;;;;;;;;;;;;;;26.77;24.37;100489.22;5075865;28;991;-12
2022/12/24 04:02:47;;;;;;;;;;;;;;;27.34;23.97;100496.81;5075809;28;1082;-11
2022/12/24 04:05:16;;;;;;;;;;;;;;;27.74;23.52;100499.13;5075542;28;1028;-12
2022/12/24 04:07:41;;;;;;;;;;;;;;;27.53;23.51;100503.44;5058906;28;1222;-12
2022/12/24 04:10:07;;;;;;;;;;;;;;;27.75;23.50;100507.03;5075843;28;1154;-11
2022/12/24 04:12:32;;;;;;;;;;;;;;;28.09;23.35;100496.47;5069324;28;937;-12
2022/12/24 04:14:57;;;;;;;;;;;;;;;27.10;23.96;100494.25;5075229;28;2449;-12
2022/12/24 04:17:23;;;;;;;;;;;;;;;26.83;24.57;100501.97;5075843;28;1067;-12
2022/12/24 04:19:48;;;;;;;;;;;;;;;27.05;24.38;100512.03;5076055;28;1909;-11
2022/12/24 04:22:13;;;;;;;;;;;;;;;27.83;23.67;100513.31;5075402;28;1097;-12
2022/12/24 04:24:39;;;;;;;;;;;;;;;27.26;24.05;100503.13;5075423;28;920;-12
2022/12/24 04:27:04;;;;;;;;;;;;;;;26.85;24.45;100496.38;5075934;28;1091;-12
2022/12/24 04:29:29;;;;;;;;;;;;;;;27.95;23.45;100519.88;5075654;28;1066;-12
2022/12/24 04:31:54;;;;;;;;;;;;;;;28.06;23.37;100509.56;5076007;28;1155;-12
2022/12/24 04:34:20;;;;;;;;;;;;;;;25.19;24.28;100502.13;5074937;28;1082;-11
2022/12/24 04:36:45;;;;;;;;;;;;;;;25.48;22.73;100502.44;5075416;28;862;-11
2022/12/24 04:39:10;;;;;;;;;;;;;;;24.23;24.35;100502.84;5075467;28;1961;-11
2022/12/24 04:41:36;;;;;;;;;;;;;;;23.34;24.00;100507.72;5075737;28;1139;-11
2022/12/24 04:44:01;;;;;;;;;;;;;;;23.41;24.31;100505.28;5075379;28;2402;-13
2022/12/24 04:46:29;;;;;;;;;;;;;;;23.34;24.87;100511.28;5076081;28;1052;-13
2022/12/24 04:48:54;;;;;;;;;;;;;;;23.30;25.11;100493.81;5075099;28;862;-13
2022/12/24 04:51:19;;;;;;;;;;;;;;;23.71;24.41;100508.34;5075313;28;1022;-13
2022/12/24 04:53:45;;;;;;;;;;;;;;;23.75;23.90;100498.13;5075424;28;1162;-13
2022/12/24 04:56:15;;;;;;;;;;;;;;;24.55;25.10;100498.44;5075441;28;1046;-12
2022/12/24 04:58:40;;;;;;;;;;;;;;;25.14;24.54;100493.72;5076940;28;1898;-12
2022/12/24 05:01:06;;;;;;;;;;;;;;;26.58;23.04;100509.50;5079132;28;921;-12
2022/12/24 05:03:31;;;;;;;;;;;;;;;25.05;22.62;100507.22;5079621;28;1071;-12
2022/12/24 05:06:03;;;;;;;;;;;;;;;24.27;23.15;100505.06;5078871;28;1122;-12
2022/12/24 05:08:28;;;;;;;;;;;;;;;23.91;23.10;100505.34;5079634;28;1127;-11
2022/12/24 05:10:54;;;;;;;;;;;;;;;23.80;23.07;100507.38;5079378;28;1135;-12
2022/12/24 05:13:20;;;;;;;;;;;;;;;23.44;23.44;100515.72;5074040;28;1839;-12
2022/12/24 05:15:45;;;;;;;;;;;;;;;23.42;23.45;100517.72;5069727;28;1156;-11
2022/12/24 05:18:10;;;;;;;;;;;;;;;23.68;23.13;100508.69;5079469;28;1976;-11
2022/12/24 05:20:35;;;;;;;;;;;;;;;23.89;22.94;100504.69;5079441;28;1083;-12
2022/12/24 05:28:28;;;;;;;;;;;;;;;25.53;22.40;100524.28;5052659;28;1119;-12
2022/12/24 05:30:54;;;;;;;;;;;;;;;26.48;21.83;100520.56;5059779;28;1245;-12
2022/12/24 05:33:19;;;;;;;;;;;;;;;26.98;21.46;100525.41;5079666;28;1137;-12
2022/12/24 05:35:44;;;;;;;;;;;;;;;27.26;21.63;100522.88;5078800;28;1151;-12
2022/12/24 05:38:09;;;;;;;;;;;;;;;27.43;21.88;100525.34;5079052;28;1901;-12
2022/12/24 05:40:35;;;;;;;;;;;;;;;27.12;22.36;100524.59;5078890;28;1113;-12
2022/12/24 05:43:00;;;;;;;;;;;;;;;26.21;23.14;100526.34;5078691;28;1130;-12
2022/12/24 05:45:25;;;;;;;;;;;;;;;26.50;22.85;100535.56;5079765;28;1127;-12
2022/12/24 05:47:51;;;;;;;;;;;;;;;27.22;21.52;100528.88;5078534;28;1113;-11
2022/12/24 05:50:16;;;;;;;;;;;;;;;27.72;21.43;100531.75;5078474;28;1095;-12
2022/12/24 05:52:41;;;;;;;;;;;;;;;27.71;21.55;100537.34;5079302;28;1492;-12
2022/12/24 05:55:07;;;;;;;;;;;;;;;27.57;22.22;100537.16;5078558;28;1055;-12
2022/12/24 05:57:33;;;;;;;;;;;;;;;27.99;21.54;100540.06;5078488;28;1083;-12
2022/12/24 05:59:58;;;;;;;;;;;;;;;26.80;23.13;100533.88;5078829;28;1956;-12
2022/12/24 06:02:23;;;;;;;;;;;;;;;26.17;23.71;100535.84;5078833;28;1055;-12
2022/12/24 06:04:49;;;;;;;;;;;;;;;27.38;22.90;100535.91;5078516;28;1099;-12
2022/12/24 06:07:14;;;;;;;;;;;;;;;28.19;21.83;100538.59;5078779;28;1194;-12
2022/12/24 06:09:39;;;;;;;;;;;;;;;28.26;21.76;100539.47;5079035;28;1166;-11
2022/12/24 06:12:05;;;;;;;;;;;;;;;27.49;22.21;100540.81;5078617;28;1082;-12
2022/12/24 06:14:30;;;;;;;;;;;;;;;27.75;22.52;100544.88;5060672;28;1168;-12
2022/12/24 06:16:55;;;;;;;;;;;;;;;26.73;23.87;100540.03;5078372;28;1034;-12
2022/12/24 06:19:21;;;;;;;;;;;;;;;27.57;22.82;100536.31;5078037;28;1969;-12
2022/12/24 06:21:46;;;;;;;;;;;;;;;27.65;22.63;100544.31;5078562;28;1222;-12
2022/12/24 06:24:11;;;;;;;;;;;;;;;28.46;21.89;100530.72;5074605;28;1098;-12
2022/12/24 06:26:36;;;;;;;;;;;;;;;27.83;22.48;100530.38;5075124;28;1147;-12
2022/12/24 06:29:02;;;;;;;;;;;;;;;27.77;22.80;100524.91;5078632;28;1067;-12
2022/12/24 06:31:27;;;;;;;;;;;;;;;28.90;21.42;100530.53;5078279;28;1133;-12
2022/12/24 06:33:52;;;;;;;;;;;;;;;29.24;21.19;100536.97;5077526;28;1063;-12
2022/12/24 06:36:19;;;;;;;;;;;;;;;27.96;22.56;100543.16;5078410;28;1000;-12
2022/12/24 06:38:44;;;;;;;;;;;;;;;27.70;22.89;100546.47;5077950;28;1878;-12
2022/12/24 06:41:10;;;;;;;;;;;;;;;28.43;22.19;100540.03;5077906;28;1179;-12
2022/12/24 06:43:35;;;;;;;;;;;;;;;28.93;21.61;100547.22;5077537;28;1134;-12
2022/12/24 06:46:00;;;;;;;;;;;;;;;28.80;21.52;100548.00;5078167;28;1090;-12
2022/12/24 06:48:26;;;;;;;;;;;;;;;27.68;22.60;100552.06;5077493;28;1095;-12
2022/12/24 06:50:51;;;;;;;;;;;;;;;27.70;23.20;100554.56;5077974;28;1028;-12
2022/12/24 06:53:16;;;;;;;;;;;;;;;28.38;22.08;100556.03;5078163;28;1075;-12
2022/12/24 06:55:42;;;;;;;;;;;;;;;28.69;21.75;100553.97;5077872;28;1067;-12
2022/12/24 06:58:07;;;;;;;;;;;;;;;28.83;21.84;100561.13;5077014;28;1894;-12
2022/12/24 07:00:32;;;;;;;;;;;;;;;28.25;22.40;100556.72;5077482;28;1158;-12
2022/12/24 07:02:57;;;;;;;;;;;;;;;27.84;22.68;100558.25;5077537;28;1171;-12
2022/12/24 07:05:23;;;;;;;;;;;;;;;28.70;22.16;100561.03;5077908;28;1214;-12
2022/12/24 07:07:48;;;;;;;;;;;;;;;28.14;22.30;100571.63;5077908;28;1142;-12
2022/12/24 07:10:14;;;;;;;;;;;;;;;27.84;22.87;100564.47;5077589;28;1060;-12
2022/12/24 07:12:39;;;;;;;;;;;;;;;28.18;22.85;100564.78;5077058;28;1227;-12
2022/12/24 07:15:05;;;;;;;;;;;;;;;28.68;22.21;100557.69;5077313;28;1117;-12
2022/12/24 07:17:30;;;;;;;;;;;;;;;28.98;21.75;100560.19;5077292;28;1277;-12
2022/12/24 07:19:55;;;;;;;;;;;;;;;29.23;21.49;100554.25;5076737;28;1913;-12
2022/12/24 07:22:20;;;;;;;;;;;;;;;28.41;22.25;100560.22;5076869;28;1103;-12
2022/12/24 07:24:46;;;;;;;;;;;;;;;28.19;22.57;100554.81;5076980;28;1040;-11
2022/12/24 07:27:11;;;;;;;;;;;;;;;27.75;23.20;100557.53;5076732;28;1127;-12
2022/12/24 07:29:36;;;;;;;;;;;;;;;27.97;23.04;100557.53;5077038;28;1143;-12
2022/12/24 07:32:02;;;;;;;;;;;;;;;29.09;21.84;100566.91;5077122;28;1079;-12
2022/12/24 07:34:27;;;;;;;;;;;;;;;28.62;22.08;100555.78;5077101;28;1090;-12
2022/12/24 07:36:52;;;;;;;;;;;;;;;28.34;22.78;100555.56;5076976;28;1086;-12
2022/12/24 07:39:17;;;;;;;;;;;;;;;28.01;23.20;100563.41;5077318;28;1987;-12
2022/12/24 07:41:43;;;;;;;;;;;;;;;29.24;21.95;100557.81;5076822;28;1063;-12
2022/12/24 07:44:12;;;;;;;;;;;;;;;28.76;22.38;100552.13;5076367;28;1138;-12
2022/12/24 07:46:37;;;;;;;;;;;;;;;28.67;22.46;100551.47;5077145;28;1122;-12
2022/12/24 07:49:02;;;;;;;;;;;;;;;28.51;22.96;100549.06;5076829;28;1043;-12
2022/12/24 07:51:28;;;;;;;;;;;;;;;29.17;22.04;100549.66;5076580;28;1144;-12
2022/12/24 07:53:53;;;;;;;;;;;;;;;28.75;22.43;100547.75;5076716;28;1273;-12
2022/12/24 07:56:18;;;;;;;;;;;;;;;28.86;22.23;100551.78;5076612;28;1040;-12
2022/12/24 07:58:44;;;;;;;;;;;;;;;28.14;23.29;100552.69;5076696;28;1898;-12
2022/12/24 08:01:09;;;;;;;;;;;;;;;28.59;22.87;100548.91;5075916;28;1212;-12
2022/12/24 08:03:34;;;;;;;;;;;;;;;29.09;22.38;100547.97;5058085;28;1148;-12
2022/12/24 08:06:00;;;;;;;;;;;;;;;28.95;22.10;100552.44;5076864;28;1202;-12
2022/12/24 08:08:25;;;;;;;;;;;;;;;28.88;22.59;100540.75;5076746;28;1119;-12
2022/12/24 08:10:51;;;;;;;;;;;;;;;28.93;22.44;100543.66;5076307;28;1168;-12
2022/12/24 08:13:16;;;;;;;;;;;;;;;28.93;22.52;100543.66;5076341;28;1333;-12
2022/12/24 08:15:42;;;;;;;;;;;;;;;28.81;22.56;100549.66;5075876;28;1180;-12
2022/12/24 08:18:07;;;;;;;;;;;;;;;27.94;23.99;100547.13;5076280;28;1977;-12
2022/12/24 08:20:32;;;;;;;;;;;;;;;28.89;22.65;100539.69;5076279;28;1142;-12
2022/12/24 08:22:57;;;;;;;;;;;;;;;29.29;22.05;100533.66;5075719;28;1206;-12
2022/12/24 08:25:23;;;;;;;;;;;;;;;28.88;22.60;100532.63;5076223;28;1130;-12
2022/12/24 08:27:48;;;;;;;;;;;;;;;28.80;22.67;100523.63;5075932;28;1202;-12
2022/12/24 08:30:14;;;;;;;;;;;;;;;29.39;22.05;100528.69;5076463;28;1084;-12
2022/12/24 08:32:39;;;;;;;;;;;;;;;28.26;23.33;100522.41;5074735;28;1052;-12
2022/12/24 08:35:05;;;;;;;;;;;;;;;28.57;23.17;100524.75;5075905;28;1158;-12
2022/12/24 08:37:30;;;;;;;;;;;;;;;28.88;22.76;100524.50;5075676;28;1320;-12
2022/12/24 08:39:55;;;;;;;;;;;;;;;28.90;22.33;100508.88;5076426;28;1953;-12
2022/12/24 08:42:21;;;;;;;;;;;;;;;28.75;22.79;100523.38;5076060;28;1064;-12
2022/12/24 08:44:46;;;;;;;;;;;;;;;28.94;22.86;100513.72;5075989;28;1075;-12
2022/12/24 08:47:11;;;;;;;;;;;;;;;28.92;22.69;100526.59;5075719;28;1171;-12
2022/12/24 08:49:36;;;;;;;;;;;;;;;28.75;22.83;100522.53;5069300;28;1104;-12
2022/12/24 08:52:02;;;;;;;;;;;;;;;28.26;23.80;100517.00;5068929;28;1120;-12
2022/12/24 08:54:27;;;;;;;;;;;;;;;28.52;23.35;100523.66;5075264;28;1089;-12
2022/12/24 08:56:52;;;;;;;;;;;;;;;28.56;23.17;100517.66;5076209;28;1068;-12
2022/12/24 08:59:18;;;;;;;;;;;;;;;28.49;23.38;100527.63;5075752;28;1901;-12
2022/12/24 09:01:43;;;;;;;;;;;;;;;28.68;23.15;100526.06;5076063;28;1126;-12
2022/12/24 09:04:08;;;;;;;;;;;;;;;28.60;23.15;100523.50;5074831;28;1113;-12
2022/12/24 09:06:34;;;;;;;;;;;;;;;28.33;23.69;100523.31;5075947;28;1103;-12
2022/12/24 09:08:59;;;;;;;;;;;;;;;28.55;23.37;100512.44;5075766;28;1095;-12
2022/12/24 09:11:24;;;;;;;;;;;;;;;28.61;23.03;100525.19;5063653;28;1234;-12
2022/12/24 09:13:50;;;;;;;;;;;;;;;28.47;23.49;100519.69;5073918;28;1134;-12
2022/12/24 09:16:15;;;;;;;;;;;;;;;28.52;23.50;100521.78;5075826;28;1046;-12
2022/12/24 09:18:41;;;;;;;;;;;;;;;28.59;23.50;100521.84;5075815;28;1914;-12
2022/12/24 09:21:07;;;;;;;;;;;;;;;28.08;24.13;100512.91;5076175;28;1277;-12
2022/12/24 09:23:39;;;;;;;;;;;;;;;28.59;23.48;100517.25;5075134;28;1043;-12
2022/12/24 09:26:07;;;;;;;;;;;;;;;28.66;23.33;100511.88;5075549;28;1159;-12
2022/12/24 09:28:33;;;;;;;;;;;;;;;28.66;23.37;100509.16;5075690;28;1107;-12
2022/12/24 09:30:59;;;;;;;;;;;;;;;28.21;24.26;100504.09;5075614;28;1067;-12
2022/12/24 09:33:24;;;;;;;;;;;;;;;28.44;23.77;100500.31;5075144;28;1147;-12
2022/12/24 09:35:51;;;;;;;;;;;;;;;28.56;23.63;100504.13;5076161;28;1233;-12
2022/12/24 09:38:16;;;;;;;;;;;;;;;28.29;23.67;100498.53;5075336;28;1905;-12
2022/12/24 09:40:41;;;;;;;;;;;;;;;28.28;24.13;100488.72;5075864;28;1074;-12
2022/12/24 09:43:12;;;;;;;;;;;;;;;28.57;23.41;100494.13;5057483;28;1221;-12
2022/12/24 09:45:37;;;;;;;;;;;;;;;28.38;23.76;100485.69;5078740;28;1134;-12
2022/12/24 09:48:04;;;;;;;;;;;;;;;28.26;24.01;100477.25;5079032;28;1540;-12
2022/12/24 09:50:45;;;;;;;;;;;;;;;28.59;23.82;100481.25;5061546;28;1079;-13
2022/12/24 09:53:22;;;;;;;;;;;;;;;27.61;23.81;100480.88;5067512;28;1043;-12
2022/12/24 09:55:48;;;;;;;;;;;;;;;28.14;23.68;100482.41;5060842;28;1052;-12
2022/12/24 09:58:19;;;;;;;;;;;;;;;28.48;23.44;100475.34;5079028;28;1906;-12
2022/12/24 10:00:44;;;;;;;;;;;;;;;28.47;23.62;100468.28;5061271;28;1206;-12
2022/12/24 10:03:16;;;;;;;;;;;;;;;28.40;23.62;100471.97;5078022;28;889;-12
2022/12/24 10:06:00;;;;;;;;;;;;;;;28.43;23.63;100476.97;5078635;28;1102;-13
2022/12/24 10:08:46;;;;;;;;;;;;;;;28.32;23.71;100462.97;5078747;28;1170;-12
2022/12/24 10:11:11;;;;;;;;;;;;;;;28.38;23.67;100458.63;5036597;28;1107;-12
2022/12/24 10:13:57;;;;;;;;;;;;;;;28.20;23.85;100454.56;5078348;28;1050;-12
2022/12/24 10:16:22;;;;;;;;;;;;;;;28.40;23.63;100451.16;5077345;28;1284;-12
2022/12/24 10:19:06;;;;;;;;;;;;;;;27.57;24.03;100452.56;5078424;28;1909;-12
2022/12/24 10:21:50;;;;;;;;;;;;;;;27.60;23.66;100452.16;5078497;28;1056;-12
2022/12/24 10:24:18;;;;;;;;;;;;;;;27.53;23.62;100452.09;5078257;28;1115;-12
2022/12/24 10:26:44;;;;;;;;;;;;;;;27.50;23.19;100444.38;5059428;28;1366;-12
2022/12/24 10:29:12;;;;;;;;;;;;;;;27.36;23.71;100443.44;5078337;28;1210;-12
2022/12/24 10:31:44;;;;;;;;;;;;;;;27.60;23.50;100442.22;5078192;28;1135;-12
2022/12/24 10:34:14;;;;;;;;;;;;;;;27.55;23.71;100439.25;5078308;28;1036;-12
2022/12/24 10:36:39;;;;;;;;;;;;;;;27.41;23.95;100437.44;5078216;28;1234;-12
2022/12/24 10:39:06;;;;;;;;;;;;;;;27.88;23.50;100432.47;5077743;28;1955;-12
2022/12/24 10:41:32;;;;;;;;;;;;;;;28.10;23.47;100437.84;5060546;28;1060;-12
2022/12/24 10:43:58;;;;;;;;;;;;;;;28.13;23.35;100436.63;5059772;28;1064;-12
2022/12/24 10:46:27;;;;;;;;;;;;;;;27.95;23.50;100444.19;5077234;28;1051;-12
2022/12/24 10:49:02;;;;;;;;;;;;;;;28.31;23.08;100445.03;5060340;28;1037;-13
2022/12/24 10:51:27;;;;;;;;;;;;;;;28.13;23.45;100439.31;5077437;28;878;-12
2022/12/24 10:54:14;;;;;;;;;;;;;;;28.27;23.14;100441.06;5077687;28;1206;-12
2022/12/24 10:56:43;;;;;;;;;;;;;;;28.64;23.00;100440.06;5076297;28;1588;-12
2022/12/24 10:59:44;;;;;;;;;;;;;;;28.35;23.24;100440.94;5077846;28;1906;-12
2022/12/24 11:02:30;;;;;;;;;;;;;;;28.44;22.96;100444.34;4993614;28;1251;-12
2022/12/24 11:04:55;;;;;;;;;;;;;;;28.55;23.29;100440.22;5063821;28;1865;-12
2022/12/24 11:07:21;;;;;;;;;;;;;;;28.23;23.37;100424.41;5077240;28;1151;-12
2022/12/24 11:09:59;;;;;;;;;;;;;;;28.38;23.42;100423.47;5077640;28;1189;-12
2022/12/24 11:12:25;;;;;;;;;;;;;;;28.42;23.73;100437.44;5065200;28;1111;-12
2022/12/24 11:15:01;;;;;;;;;;;;;;;28.44;23.38;100429.97;5059230;28;1067;-12
2022/12/24 11:17:26;;;;;;;;;;;;;;;28.55;23.22;100429.41;5058962;28;1115;-12
2022/12/24 11:19:51;;;;;;;;;;;;;;;28.49;23.30;100419.38;5077376;28;1918;-12
2022/12/24 11:22:17;;;;;;;;;;;;;;;28.42;23.52;100421.22;5076937;28;1038;-12
2022/12/24 11:24:43;;;;;;;;;;;;;;;28.16;23.78;100425.41;5077042;28;1059;-12
2022/12/24 11:27:22;;;;;;;;;;;;;;;27.86;23.82;100421.84;5076365;28;1167;-12
2022/12/24 11:29:47;;;;;;;;;;;;;;;28.09;23.58;100417.25;5077517;28;1052;-12
2022/12/24 11:32:21;;;;;;;;;;;;;;;27.78;24.00;100419.31;5077123;28;1162;-12
2022/12/24 11:34:46;;;;;;;;;;;;;;;28.03;23.71;100416.16;5077216;28;1149;-12
2022/12/24 11:37:12;;;;;;;;;;;;;;;28.34;23.75;100412.22;5076750;28;1067;-12
2022/12/24 11:39:37;;;;;;;;;;;;;;;28.15;23.85;100427.25;5076082;28;1898;-12
2022/12/24 11:42:03;;;;;;;;;;;;;;;28.27;23.76;100421.31;5059726;28;1056;-13
2022/12/24 11:44:28;;;;;;;;;;;;;;;28.12;23.68;100414.16;5058706;28;1179;-12
2022/12/24 11:46:55;;;;;;;;;;;;;;;27.92;23.61;100412.16;5077146;28;1067;-12
2022/12/24 11:49:28;;;;;;;;;;;;;;;27.08;23.44;100422.56;5058962;28;1024;-13
2022/12/24 11:52:08;;;;;;;;;;;;;;;26.86;23.89;100425.22;5076520;28;938;-12
2022/12/24 11:54:34;;;;;;;;;;;;;;;26.99;24.16;100422.63;5077097;28;1028;-12
2022/12/24 11:57:00;;;;;;;;;;;;;;;27.04;23.68;100426.69;5076615;28;1063;-12
2022/12/24 11:59:30;;;;;;;;;;;;;;;26.89;23.58;100422.13;5058021;28;1902;-13
2022/12/24 12:02:04;;;;;;;;;;;;;;;26.58;24.09;100439.38;5058788;28;948;-13
2022/12/24 12:04:30;;;;;;;;;;;;;;;26.76;23.52;100436.28;5075934;28;956;-12
2022/12/24 12:06:57;;;;;;;;;;;;;;;26.64;22.50;100423.25;5057902;28;1153;-13
2022/12/24 12:09:30;;;;;;;;;;;;;;;25.65;23.98;100425.94;5058901;28;1138;-13
2022/12/24 12:11:58;;;;;;;;;;;;;;;26.85;22.53;100421.66;5058906;28;1108;-12
2022/12/24 12:14:29;;;;;;;;;;;;;;;27.12;22.35;100418.47;5058039;28;1041;-13
2022/12/24 12:16:59;;;;;;;;;;;;;;;27.05;23.22;100417.53;5073550;28;1312;-12
2022/12/24 12:19:25;;;;;;;;;;;;;;;27.59;22.89;100409.97;5076626;28;1957;-12
2022/12/24 12:21:50;;;;;;;;;;;;;;;27.05;23.55;100421.09;5040766;28;1251;-12
2022/12/24 12:24:19;;;;;;;;;;;;;;;27.03;23.58;100420.44;5066680;28;1055;-12
2022/12/24 12:26:45;;;;;;;;;;;;;;;27.61;22.88;100419.56;5076128;28;1102;-12
2022/12/24 12:29:10;;;;;;;;;;;;;;;27.05;23.49;100415.69;5057976;28;1149;-12
2022/12/24 12:31:37;;;;;;;;;;;;;;;27.01;23.70;100419.75;5076179;28;1211;-12
2022/12/24 12:34:10;;;;;;;;;;;;;;;27.67;23.17;100412.53;5076006;28;1129;-12
2022/12/24 12:36:40;;;;;;;;;;;;;;;27.07;23.61;100420.91;5057982;28;1175;-12
2022/12/24 12:39:07;;;;;;;;;;;;;;;26.88;24.00;100423.97;5057672;28;1969;-12
2022/12/24 12:41:32;;;;;;;;;;;;;;;27.53;23.13;100425.09;5057803;28;1063;-13
2022/12/24 12:44:16;;;;;;;;;;;;;;;26.88;24.43;100439.31;5075644;28;1063;-12
2022/12/24 12:46:50;;;;;;;;;;;;;;;26.94;24.37;100433.19;5075826;28;1150;-12
2022/12/24 12:49:28;;;;;;;;;;;;;;;27.11;24.05;100427.59;5075987;28;1199;-12
2022/12/24 12:51:59;;;;;;;;;;;;;;;26.88;24.43;100429.38;5075191;28;1078;-12
2022/12/24 12:54:25;;;;;;;;;;;;;;;27.39;24.23;100426.84;5075775;28;1072;-12
2022/12/24 12:56:51;;;;;;;;;;;;;;;26.98;24.27;100431.78;5075696;28;1048;-12